Time;durP1;ratioP1;P1;durP2;ratioP2;P2;SDS_P1;SDS_P2;PMS_P1;PMS_P2;Temp;Humidity;BMP_temperature;BMP_pressure;BME280_temperature;BME280_humidity;BME280_pressure;Samples;Min_cycle;Max_cycle;Signal;HPM_P1;HPM_P2
2023/08/24 00:01:21;;;;;;;0.55;0.55;;;21.80;68.90;;;;;;5012037;28;20038;-83
2023/08/24 00:03:47;;;;;;;0.75;0.75;;;21.80;69.10;;;;;;5016673;28;20026;-83
2023/08/24 00:06:13;;;;;;;0.73;0.50;;;21.80;69.10;;;;;;5011168;28;20026;-80
2023/08/24 00:08:39;;;;;;;0.80;0.80;;;21.80;69.10;;;;;;5009502;28;20037;-79
2023/08/24 00:11:05;;;;;;;1.30;0.70;;;21.80;69.20;;;;;;5010667;28;20068;-80
2023/08/24 00:13:31;;;;;;;0.60;0.47;;;21.70;69.30;;;;;;4994045;28;20107;-83
2023/08/24 00:15:57;;;;;;;1.58;0.75;;;21.70;69.40;;;;;;5019617;28;20164;-83
2023/08/24 00:18:23;;;;;;;1.30;0.68;;;21.70;69.40;;;;;;5004940;28;20030;-83
2023/08/24 00:20:49;;;;;;;1.00;0.90;;;21.70;69.40;;;;;;5014822;28;20026;-83
2023/08/24 00:23:15;;;;;;;0.50;0.50;;;21.80;69.50;;;;;;5033022;28;20049;-79
2023/08/24 00:25:41;;;;;;;2.15;0.90;;;21.70;69.60;;;;;;5016785;28;20054;-83
2023/08/24 00:28:07;;;;;;;0.77;0.70;;;21.70;69.80;;;;;;5015680;28;20485;-82
2023/08/24 00:30:33;;;;;;;1.40;0.93;;;21.70;69.80;;;;;;5014594;28;20038;-83
2023/08/24 00:32:59;;;;;;;0.75;0.52;;;21.70;69.90;;;;;;5014868;28;20060;-80
2023/08/24 00:35:25;;;;;;;2.10;0.68;;;21.70;69.90;;;;;;5001366;28;20111;-83
2023/08/24 00:37:50;;;;;;;0.40;0.40;;;21.70;69.90;;;;;;5033959;28;20034;-83
2023/08/24 00:40:16;;;;;;;1.65;0.93;;;21.70;70.60;;;;;;5020492;28;20028;-83
2023/08/24 00:46:04;;;;;;;1.33;0.98;;;21.70;70.00;;;;;;5022227;28;20064;-82
2023/08/24 00:48:31;;;;;;;0.60;0.60;;;21.70;70.30;;;;;;5028242;28;20029;-83
2023/08/24 00:51:00;;;;;;;1.95;0.60;;;21.70;70.30;;;;;;5033694;28;20026;-82
2023/08/24 00:53:26;;;;;;;0.88;0.77;;;21.70;70.40;;;;;;5017650;28;20030;-80
2023/08/24 00:55:52;;;;;;;0.57;0.47;;;21.70;70.60;;;;;;5012874;28;20497;-79
2023/08/24 00:58:19;;;;;;;1.17;0.98;;;21.70;70.60;;;;;;5008764;28;20045;-79
2023/08/24 01:00:45;;;;;;;1.10;1.00;;;21.70;70.60;;;;;;5009972;28;20126;-79
2023/08/24 01:03:11;;;;;;;0.70;0.70;;;21.70;70.80;;;;;;5042243;28;20114;-83
2023/08/24 01:05:37;;;;;;;1.77;0.80;;;21.70;70.80;;;;;;5041984;28;20040;-82
2023/08/24 01:08:03;;;;;;;1.13;0.82;;;21.70;70.90;;;;;;5026265;28;20108;-79
2023/08/24 01:10:56;;;;;;;2.03;0.82;;;21.70;71.00;;;;;;5009552;28;20042;-80
2023/08/24 01:13:36;;;;;;;3.80;1.00;;;21.70;71.00;;;;;;5014199;28;20548;-79
2023/08/24 01:16:12;;;;;;;3.05;1.42;;;21.70;71.00;;;;;;5012192;28;20018;-79
2023/08/24 01:18:39;;;;;;;1.13;0.98;;;21.70;71.10;;;;;;5013320;28;20126;-79
2023/08/24 01:21:05;;;;;;;1.42;1.13;;;21.70;71.20;;;;;;5015681;28;20029;-80
2023/08/24 01:23:57;;;;;;;1.73;0.93;;;21.70;71.20;;;;;;5038319;28;20101;-80
2023/08/24 01:26:23;;;;;;;1.75;1.05;;;21.70;71.20;;;;;;4998666;28;20107;-79
2023/08/24 01:28:50;;;;;;;0.93;0.68;;;21.70;71.30;;;;;;5020851;28;20044;-81
2023/08/24 01:31:19;;;;;;;2.38;0.85;;;21.60;71.40;;;;;;5055299;28;20091;-82
2023/08/24 01:33:45;;;;;;;2.40;0.80;;;21.60;71.40;;;;;;5021738;28;20029;-79
2023/08/24 01:36:14;;;;;;;1.73;1.48;;;21.60;71.50;;;;;;5014712;28;20038;-80
2023/08/24 01:38:41;;;;;;;1.48;1.13;;;21.60;71.60;;;;;;5016969;28;20038;-79
2023/08/24 01:41:18;;;;;;;1.77;1.05;;;21.60;71.70;;;;;;5019914;28;20026;-82
2023/08/24 01:43:50;;;;;;;1.70;1.10;;;21.60;71.70;;;;;;5017964;28;20089;-82
2023/08/24 01:46:19;;;;;;;1.35;1.25;;;21.50;71.80;;;;;;5023598;28;20018;-80
2023/08/24 01:48:45;;;;;;;2.45;0.80;;;21.50;72.10;;;;;;5016691;28;20058;-80
2023/08/24 01:51:12;;;;;;;2.97;1.52;;;21.50;72.10;;;;;;5025469;28;20037;-79
2023/08/24 01:53:39;;;;;;;0.93;0.82;;;21.50;72.30;;;;;;5011153;28;20026;-79
2023/08/24 01:56:12;;;;;;;5.70;1.50;;;21.50;72.40;;;;;;5013165;28;20057;-82
2023/08/24 01:58:39;;;;;;;1.73;0.82;;;21.50;72.40;;;;;;5001243;28;20037;-82
2023/08/24 02:01:05;;;;;;;1.73;1.25;;;21.50;72.50;;;;;;5011706;28;20076;-79
2023/08/24 02:03:31;;;;;;;1.10;1.00;;;21.50;72.60;;;;;;5018156;28;20034;-79
2023/08/24 02:05:57;;;;;;;1.58;1.00;;;21.50;72.70;;;;;;5030815;28;20546;-82
2023/08/24 02:08:22;;;;;;;1.60;1.50;;;21.50;72.60;;;;;;5018440;28;20057;-79
2023/08/24 02:10:48;;;;;;;2.28;1.48;;;21.50;72.60;;;;;;5010508;28;20026;-79
2023/08/24 02:13:14;;;;;;;2.40;1.02;;;21.50;72.80;;;;;;5010643;28;20103;-79
2023/08/24 02:15:39;;;;;;;1.80;1.20;;;21.50;72.80;;;;;;5007730;28;20033;-79
2023/08/24 02:18:06;;;;;;;1.23;0.90;;;21.50;72.80;;;;;;5008198;28;20056;-79
2023/08/24 02:20:38;;;;;;;4.10;2.15;;;21.60;72.90;;;;;;5016326;28;20030;-79
2023/08/24 02:23:05;;;;;;;0.60;0.60;;;21.60;73.00;;;;;;5012450;28;20030;-79
2023/08/24 02:25:30;;;;;;;1.30;1.00;;;21.60;72.80;;;;;;5014728;28;20025;-79
2023/08/24 02:27:56;;;;;;;0.88;0.80;;;21.60;72.80;;;;;;5007924;28;20034;-79
2023/08/24 02:30:22;;;;;;;1.67;1.10;;;21.60;72.70;;;;;;5009972;28;20030;-79
2023/08/24 02:32:48;;;;;;;2.25;0.80;;;21.70;72.80;;;;;;5013071;28;20040;-78
2023/08/24 02:35:13;;;;;;;6.07;1.63;;;21.70;72.70;;;;;;5007943;28;20598;-79
2023/08/24 02:37:39;;;;;;;0.98;0.80;;;21.60;72.70;;;;;;5007782;28;20030;-83
2023/08/24 02:40:05;;;;;;;1.08;1.00;;;21.60;72.70;;;;;;5024349;28;20044;-83
2023/08/24 02:42:33;;;;;;;1.30;1.20;;;21.70;73.40;;;;;;5012393;28;20022;-82
2023/08/24 02:44:58;;;;;;;2.08;1.80;;;21.60;72.90;;;;;;5013749;28;20539;-82
2023/08/24 02:47:24;;;;;;;1.08;0.98;;;21.60;73.50;;;;;;5023535;28;20034;-82
2023/08/24 02:49:50;;;;;;;1.92;1.60;;;21.60;72.90;;;;;;5009909;28;20061;-83
2023/08/24 02:52:15;;;;;;;1.40;1.23;;;21.70;73.10;;;;;;5001195;28;20125;-83
2023/08/24 02:54:41;;;;;;;3.08;1.33;;;21.60;73.20;;;;;;5015670;28;20037;-83
2023/08/24 02:57:07;;;;;;;2.35;1.45;;;21.70;73.40;;;;;;4990173;28;20046;-78
2023/08/24 02:59:33;;;;;;;3.40;1.27;;;21.60;73.60;;;;;;5009961;28;20041;-78
2023/08/24 03:01:59;;;;;;;1.92;1.20;;;21.60;73.80;;;;;;5007594;28;20022;-84
2023/08/24 03:04:24;;;;;;;1.67;1.10;;;21.60;73.90;;;;;;5016167;28;20562;-84
2023/08/24 03:06:50;;;;;;;1.55;1.23;;;21.60;74.00;;;;;;5013406;28;20060;-82
2023/08/24 03:09:15;;;;;;;2.28;1.55;;;21.60;74.00;;;;;;5012049;28;20037;-83
2023/08/24 03:11:42;;;;;;;2.60;1.52;;;21.50;74.10;;;;;;5022526;28;20053;-84
2023/08/24 03:14:07;;;;;;;2.30;1.48;;;21.50;74.40;;;;;;5014799;28;20022;-83
2023/08/24 03:16:34;;;;;;;1.67;1.30;;;21.40;74.40;;;;;;5010982;28;20034;-82
2023/08/24 03:18:59;;;;;;;2.90;1.08;;;21.50;74.60;;;;;;5015236;28;20030;-82
2023/08/24 03:21:25;;;;;;;3.55;1.45;;;21.40;74.50;;;;;;5009846;28;20048;-83
2023/08/24 03:23:51;;;;;;;1.52;1.30;;;21.40;74.70;;;;;;5013744;28;20025;-83
2023/08/24 03:26:16;;;;;;;2.00;1.40;;;21.40;74.90;;;;;;4976275;28;20099;-83
2023/08/24 03:28:43;;;;;;;2.00;1.05;;;21.40;75.00;;;;;;5020044;28;20033;-83
2023/08/24 03:31:08;;;;;;;2.53;1.33;;;21.30;74.90;;;;;;5008335;28;20032;-77
2023/08/24 03:33:34;;;;;;;1.10;1.00;;;21.30;75.00;;;;;;4980585;28;20124;-77
2023/08/24 03:36:01;;;;;;;1.63;1.10;;;21.30;75.00;;;;;;5006463;28;20026;-77
2023/08/24 03:38:29;;;;;;;1.95;1.80;;;21.30;75.00;;;;;;5006017;28;20124;-77
2023/08/24 03:41:02;;;;;;;2.13;1.58;;;21.30;75.10;;;;;;5013331;28;20440;-83
2023/08/24 03:43:31;;;;;;;4.40;1.27;;;21.30;75.20;;;;;;5013710;28;20142;-83
2023/08/24 03:45:57;;;;;;;4.07;1.30;;;21.30;75.30;;;;;;5011166;28;20587;-83
2023/08/24 03:48:22;;;;;;;1.52;1.38;;;21.30;75.30;;;;;;5021165;28;20045;-83
2023/08/24 03:50:48;;;;;;;3.20;1.70;;;21.20;75.20;;;;;;5011015;28;20485;-84
2023/08/24 03:53:13;;;;;;;1.13;1.00;;;21.20;75.30;;;;;;5015072;28;20497;-77
2023/08/24 03:55:39;;;;;;;2.58;1.65;;;21.20;75.30;;;;;;4994707;28;20034;-83
2023/08/24 03:58:05;;;;;;;3.05;1.23;;;21.10;75.40;;;;;;5007062;28;20085;-83
2023/08/24 04:00:30;;;;;;;2.75;1.58;;;21.10;75.50;;;;;;5017563;28;20030;-83
2023/08/24 04:02:56;;;;;;;1.05;1.00;;;21.10;75.60;;;;;;5027361;28;20503;-76
2023/08/24 04:05:22;;;;;;;2.30;1.42;;;21.10;75.60;;;;;;5008874;28;20038;-76
2023/08/24 04:07:48;;;;;;;1.65;1.40;;;21.00;75.60;;;;;;5030059;28;20018;-76
2023/08/24 04:10:13;;;;;;;1.95;1.23;;;21.00;75.70;;;;;;5007513;28;20065;-76
2023/08/24 04:12:39;;;;;;;4.28;1.90;;;21.00;75.70;;;;;;5012620;28;20029;-76
2023/08/24 04:15:05;;;;;;;2.28;1.52;;;21.00;75.70;;;;;;5009564;28;20433;-83
2023/08/24 04:17:31;;;;;;;2.15;1.30;;;20.90;75.80;;;;;;5014444;28;20365;-83
2023/08/24 04:19:57;;;;;;;2.20;1.60;;;20.90;75.90;;;;;;5007919;28;20076;-77
2023/08/24 04:22:22;;;;;;;5.38;2.03;;;20.90;75.90;;;;;;5010288;28;20034;-83
2023/08/24 04:24:48;;;;;;;2.85;1.38;;;20.90;76.00;;;;;;5010161;28;20022;-84
2023/08/24 04:27:14;;;;;;;1.92;1.13;;;20.90;76.00;;;;;;5011925;28;20551;-84
2023/08/24 04:29:40;;;;;;;1.67;1.42;;;20.80;76.00;;;;;;5009748;28;20030;-82
2023/08/24 04:32:06;;;;;;;3.78;2.33;;;20.80;76.10;;;;;;5006973;28;20117;-76
2023/08/24 04:34:32;;;;;;;1.42;1.15;;;20.80;76.10;;;;;;5010252;28;20034;-82
2023/08/24 04:36:57;;;;;;;1.60;1.10;;;20.80;76.10;;;;;;5006037;28;20526;-82
2023/08/24 04:39:24;;;;;;;2.53;1.15;;;20.80;76.30;;;;;;5016147;28;20029;-75
2023/08/24 04:41:50;;;;;;;2.38;1.30;;;20.80;76.30;;;;;;5015505;28;20026;-75
2023/08/24 04:44:16;;;;;;;2.03;1.25;;;20.70;76.30;;;;;;5007686;28;20447;-75
2023/08/24 04:46:41;;;;;;;2.47;1.90;;;20.70;76.40;;;;;;5009940;28;20398;-84
2023/08/24 04:49:07;;;;;;;1.10;1.02;;;20.70;76.40;;;;;;5018396;28;20029;-77
2023/08/24 04:51:33;;;;;;;2.67;2.08;;;20.70;76.50;;;;;;5010683;28;20609;-84
2023/08/24 04:53:58;;;;;;;1.42;1.23;;;20.70;76.30;;;;;;5012452;28;20396;-84
2023/08/24 04:56:24;;;;;;;1.92;1.20;;;20.70;76.30;;;;;;5009893;28;20417;-77
2023/08/24 04:58:57;;;;;;;3.28;1.73;;;20.70;76.20;;;;;;5019161;28;20192;-83
2023/08/24 05:01:24;;;;;;;1.95;1.67;;;20.70;76.30;;;;;;5007285;28;20034;-83
2023/08/24 05:03:51;;;;;;;1.13;1.02;;;20.70;76.40;;;;;;4997064;28;20027;-84
2023/08/24 05:06:17;;;;;;;1.80;1.23;;;20.70;76.30;;;;;;5012741;28;20175;-83
2023/08/24 05:08:43;;;;;;;2.10;1.27;;;20.70;76.30;;;;;;5011619;28;20117;-78
2023/08/24 05:11:18;;;;;;;1.70;1.27;;;20.70;76.30;;;;;;5019890;28;20026;-83
2023/08/24 05:13:44;;;;;;;5.13;1.50;;;20.80;76.20;;;;;;5005930;28;20034;-77
2023/08/24 05:16:10;;;;;;;1.63;1.20;;;20.80;76.20;;;;;;5013677;28;20037;-84
2023/08/24 05:18:36;;;;;;;1.90;1.40;;;20.80;76.20;;;;;;5013766;28;20045;-84
2023/08/24 05:21:03;;;;;;;1.00;0.80;;;20.80;76.10;;;;;;5012187;28;20033;-85
2023/08/24 05:23:30;;;;;;;1.85;1.52;;;20.80;76.10;;;;;;5011510;28;20397;-77
2023/08/24 05:25:57;;;;;;;1.38;1.10;;;20.90;76.10;;;;;;5015832;28;20037;-77
2023/08/24 05:28:26;;;;;;;1.52;1.23;;;20.90;76.10;;;;;;5026237;28;20025;-77
2023/08/24 05:30:53;;;;;;;1.58;1.48;;;20.90;76.10;;;;;;5014191;28;20084;-77
2023/08/24 05:33:20;;;;;;;2.15;0.90;;;20.90;76.10;;;;;;5008262;28;20035;-82
2023/08/24 05:35:45;;;;;;;2.28;1.20;;;20.90;76.00;;;;;;5007211;28;20072;-82
2023/08/24 05:38:12;;;;;;;1.20;1.10;;;20.90;76.10;;;;;;5008247;28;20057;-82
2023/08/24 05:40:38;;;;;;;2.13;1.55;;;21.00;76.10;;;;;;5007788;28;20037;-82
2023/08/24 05:43:04;;;;;;;3.13;1.65;;;21.00;76.10;;;;;;5009632;28;20025;-82
2023/08/24 05:45:30;;;;;;;1.38;1.08;;;21.10;76.70;;;;;;5016304;28;20026;-81
2023/08/24 05:47:55;;;;;;;3.22;1.77;;;21.10;76.10;;;;;;5010920;28;20100;-76
2023/08/24 05:50:21;;;;;;;2.22;1.38;;;21.10;76.10;;;;;;5010388;28;20029;-81
2023/08/24 05:52:47;;;;;;;2.70;1.48;;;21.20;76.10;;;;;;5013916;28;20434;-82
2023/08/24 05:55:13;;;;;;;1.20;0.95;;;21.20;76.10;;;;;;5009299;28;20425;-82
2023/08/24 05:57:38;;;;;;;1.10;1.00;;;21.20;76.10;;;;;;5009432;28;20453;-76
2023/08/24 06:00:09;;;;;;;1.42;1.30;;;21.30;76.10;;;;;;5013526;28;20034;-82
2023/08/24 06:02:36;;;;;;;5.32;1.55;;;21.30;76.00;;;;;;5023623;28;20100;-76
2023/08/24 06:05:02;;;;;;;2.72;1.80;;;21.30;75.90;;;;;;5017177;28;20036;-76
2023/08/24 06:07:29;;;;;;;1.20;1.10;;;21.30;76.00;;;;;;5009650;28;20038;-82
2023/08/24 06:09:56;;;;;;;1.92;1.63;;;21.30;76.10;;;;;;5009159;28;20030;-82
2023/08/24 06:12:22;;;;;;;4.25;2.15;;;21.40;76.10;;;;;;5008489;28;21034;-81
2023/08/24 06:14:47;;;;;;;5.05;1.13;;;21.40;76.00;;;;;;5013691;28;20114;-81
2023/08/24 06:17:13;;;;;;;1.55;1.45;;;21.50;75.90;;;;;;5013449;28;20046;-75
2023/08/24 06:19:39;;;;;;;3.05;1.80;;;21.50;75.90;;;;;;4997855;28;20612;-77
2023/08/24 06:22:04;;;;;;;1.98;1.77;;;21.60;75.90;;;;;;5017035;28;20489;-82
2023/08/24 06:24:31;;;;;;;2.55;1.50;;;21.60;75.90;;;;;;5008807;28;20049;-81
2023/08/24 06:26:56;;;;;;;1.17;0.90;;;21.60;75.90;;;;;;5014849;28;20046;-77
2023/08/24 06:29:22;;;;;;;1.52;1.42;;;21.60;75.70;;;;;;5012765;28;20157;-76
2023/08/24 06:31:48;;;;;;;2.42;1.40;;;21.70;75.80;;;;;;5016342;28;20036;-75
2023/08/24 06:34:13;;;;;;;3.03;1.70;;;21.70;75.70;;;;;;5015254;28;20490;-80
2023/08/24 06:36:39;;;;;;;1.50;1.30;;;21.80;75.60;;;;;;5013291;28;20031;-76
2023/08/24 06:39:05;;;;;;;1.65;1.40;;;21.70;75.30;;;;;;4998937;28;21024;-76
2023/08/24 06:41:37;;;;;;;3.20;2.13;;;21.80;75.50;;;;;;4995248;28;20058;-76
2023/08/24 06:44:03;;;;;;;3.53;1.75;;;21.90;75.40;;;;;;4993558;28;20044;-76
2023/08/24 06:46:29;;;;;;;1.85;1.48;;;21.90;75.40;;;;;;5015927;28;20022;-76
2023/08/24 06:48:55;;;;;;;2.38;1.50;;;21.90;75.20;;;;;;5014958;28;20125;-77
2023/08/24 06:51:21;;;;;;;1.90;1.23;;;22.00;75.10;;;;;;5012785;28;20117;-77
2023/08/24 06:53:48;;;;;;;2.90;1.55;;;22.10;75.10;;;;;;5020912;28;20038;-82
2023/08/24 06:56:23;;;;;;;2.03;1.40;;;22.10;74.90;;;;;;5007564;28;20069;-81
2023/08/24 06:58:49;;;;;;;4.32;1.30;;;22.20;74.90;;;;;;5004340;28;20099;-81
2023/08/24 07:01:15;;;;;;;2.03;1.48;;;22.30;74.70;;;;;;5011268;28;20030;-82
2023/08/24 07:03:41;;;;;;;4.53;1.55;;;22.40;74.60;;;;;;5009672;28;20072;-82
2023/08/24 07:06:07;;;;;;;2.03;1.35;;;22.50;74.50;;;;;;5012845;28;20065;-77
2023/08/24 07:08:34;;;;;;;2.53;1.85;;;22.50;74.30;;;;;;5013160;28;20029;-83
2023/08/24 07:11:00;;;;;;;2.70;1.73;;;22.60;74.30;;;;;;5030375;28;20025;-82
2023/08/24 07:13:27;;;;;;;1.98;1.80;;;22.60;74.10;;;;;;4991068;28;20037;-82
2023/08/24 07:15:52;;;;;;;3.03;1.70;;;22.60;74.00;;;;;;5003260;28;20539;-82
2023/08/24 07:18:18;;;;;;;1.75;1.33;;;22.70;74.00;;;;;;5009582;28;20038;-77
2023/08/24 07:20:44;;;;;;;4.05;2.03;;;22.80;73.80;;;;;;5000441;28;20056;-80
2023/08/24 07:23:09;;;;;;;1.52;1.42;;;22.80;73.70;;;;;;4997228;28;20029;-81
2023/08/24 07:25:36;;;;;;;2.80;2.03;;;22.80;73.60;;;;;;5011750;28;20498;-77
2023/08/24 07:28:03;;;;;;;2.90;1.77;;;22.90;73.60;;;;;;4999002;28;20581;-77
2023/08/24 07:30:30;;;;;;;2.50;1.85;;;23.00;73.30;;;;;;5001782;28;20091;-77
2023/08/24 07:32:56;;;;;;;2.10;1.38;;;23.00;73.00;;;;;;5008655;28;20178;-82
2023/08/24 07:35:24;;;;;;;2.40;1.77;;;23.10;72.80;;;;;;5007218;28;20116;-83
2023/08/24 07:37:51;;;;;;;1.20;1.10;;;23.20;72.60;;;;;;5012568;28;20484;-76
2023/08/24 07:40:17;;;;;;;4.50;1.50;;;23.30;72.60;;;;;;5011188;28;20030;-79
2023/08/24 07:42:53;;;;;;;3.47;1.75;;;23.30;72.20;;;;;;5011647;28;20033;-79
2023/08/24 07:45:19;;;;;;;2.03;1.38;;;23.40;72.10;;;;;;5000492;28;20497;-79
2023/08/24 07:47:45;;;;;;;0.88;0.80;;;23.40;71.90;;;;;;5010584;28;20022;-79
2023/08/24 07:50:11;;;;;;;5.07;1.75;;;23.50;71.90;;;;;;5022063;28;20072;-77
2023/08/24 07:52:38;;;;;;;1.98;1.17;;;23.60;71.80;;;;;;4991023;28;20030;-79
2023/08/24 07:55:06;;;;;;;2.72;1.13;;;23.60;71.70;;;;;;5008076;28;20033;-83
2023/08/24 07:57:36;;;;;;;2.20;1.50;;;23.70;71.60;;;;;;4972773;28;1183121;-84
2023/08/24 08:00:02;;;;;;;1.77;1.38;;;23.80;71.30;;;;;;4988497;28;20057;-84
2023/08/24 08:02:28;;;;;;;1.92;1.73;;;24.00;71.20;;;;;;5011975;28;20087;-86
2023/08/24 08:04:58;;;;;;;2.65;1.60;;;24.00;70.90;;;;;;5006529;28;20034;-85
2023/08/24 08:07:24;;;;;;;1.67;1.45;;;24.20;70.50;;;;;;5008604;28;20026;-85
2023/08/24 08:09:50;;;;;;;1.85;1.40;;;24.30;70.40;;;;;;5001034;28;20476;-84
2023/08/24 08:12:16;;;;;;;1.88;1.48;;;24.30;70.10;;;;;;5007352;28;20470;-78
2023/08/24 08:14:41;;;;;;;1.80;1.40;;;24.40;70.00;;;;;;5031065;28;20057;-78
2023/08/24 08:17:07;;;;;;;1.40;1.30;;;24.50;69.80;;;;;;5003290;28;20041;-78
2023/08/24 08:19:35;;;;;;;1.40;1.25;;;24.60;69.50;;;;;;5013437;28;20508;-78
2023/08/24 08:22:01;;;;;;;0.88;0.88;;;24.70;69.30;;;;;;5009556;28;20497;-78
2023/08/24 08:24:27;;;;;;;2.10;1.70;;;24.80;69.10;;;;;;5005124;28;20030;-78
2023/08/24 08:26:53;;;;;;;1.17;1.08;;;24.90;68.70;;;;;;4993766;28;20033;-85
2023/08/24 08:29:18;;;;;;;2.22;1.50;;;25.00;68.60;;;;;;5009296;28;20030;-86
2023/08/24 08:31:44;;;;;;;2.85;1.48;;;25.10;68.50;;;;;;5004817;28;20044;-85
2023/08/24 08:34:09;;;;;;;2.35;1.65;;;25.10;68.40;;;;;;5009071;28;20069;-85
2023/08/24 08:36:35;;;;;;;2.92;1.83;;;25.10;68.30;;;;;;5011263;28;20042;-78
2023/08/24 08:39:01;;;;;;;3.97;2.10;;;25.20;68.10;;;;;;5007902;28;20061;-79
2023/08/24 08:41:31;;;;;;;2.75;1.48;;;25.20;68.00;;;;;;5008999;28;20045;-79
2023/08/24 08:43:57;;;;;;;3.67;2.55;;;25.30;68.20;;;;;;5000524;28;20030;-79
2023/08/24 08:46:23;;;;;;;1.95;1.75;;;25.30;67.70;;;;;;4994101;28;20111;-79
2023/08/24 08:48:52;;;;;;;3.83;2.42;;;25.30;67.80;;;;;;5009176;28;20038;-84
2023/08/24 08:51:18;;;;;;;1.77;1.52;;;25.30;67.90;;;;;;5011764;28;20041;-79
2023/08/24 08:53:44;;;;;;;3.25;2.05;;;25.30;68.10;;;;;;5014738;28;20034;-79
2023/08/24 08:56:11;;;;;;;2.28;1.67;;;25.40;68.10;;;;;;5011650;28;20049;-79
2023/08/24 08:58:37;;;;;;;2.53;1.45;;;25.50;68.10;;;;;;5010236;28;20042;-79
2023/08/24 09:01:04;;;;;;;1.67;1.50;;;25.50;68.10;;;;;;4987465;28;20022;-79
2023/08/24 09:03:32;;;;;;;4.57;2.20;;;25.60;68.00;;;;;;5009784;28;20477;-79
2023/08/24 09:05:58;;;;;;;2.42;1.98;;;25.70;68.00;;;;;;5003758;28;20026;-79
2023/08/24 09:08:25;;;;;;;3.80;1.83;;;25.70;68.00;;;;;;5011540;28;20034;-79
2023/08/24 09:10:51;;;;;;;2.28;1.67;;;25.80;68.10;;;;;;5008400;28;20046;-78
2023/08/24 09:13:17;;;;;;;2.88;2.05;;;25.90;68.10;;;;;;5007230;28;20435;-79
2023/08/24 09:15:43;;;;;;;2.13;1.50;;;26.00;68.60;;;;;;5008388;28;20069;-86
2023/08/24 09:18:09;;;;;;;1.83;1.52;;;26.10;67.60;;;;;;5006239;28;20053;-85
2023/08/24 09:20:35;;;;;;;1.58;1.48;;;26.20;67.60;;;;;;5012709;28;20374;-86
2023/08/24 09:23:01;;;;;;;1.45;1.35;;;26.30;67.50;;;;;;5008039;28;20029;-79
2023/08/24 09:25:27;;;;;;;1.70;1.60;;;26.30;67.40;;;;;;5030270;28;20071;-78
2023/08/24 09:28:05;;;;;;;4.90;1.90;;;26.50;67.20;;;;;;5010999;28;20109;-78
2023/08/24 09:30:39;;;;;;;2.00;1.80;;;26.50;67.00;;;;;;5013587;28;20116;-78
2023/08/24 09:33:14;;;;;;;1.80;1.60;;;26.60;67.00;;;;;;5012898;28;20026;-78
2023/08/24 09:35:40;;;;;;;3.70;2.13;;;26.60;66.90;;;;;;4987944;28;20041;-78
2023/08/24 09:38:21;;;;;;;4.93;2.30;;;26.70;66.90;;;;;;4999635;28;20120;-78
2023/08/24 09:40:50;;;;;;;3.45;2.35;;;26.80;66.70;;;;;;4999982;28;20029;-85
2023/08/24 09:43:16;;;;;;;3.17;2.05;;;26.90;66.50;;;;;;5016821;28;20397;-84
2023/08/24 09:45:56;;;;;;;1.55;1.35;;;26.90;66.00;;;;;;5013050;28;20018;-85
2023/08/24 09:48:22;;;;;;;1.60;1.50;;;27.10;65.90;;;;;;5001666;28;20061;-85
2023/08/24 09:50:51;;;;;;;3.88;1.83;;;27.20;65.70;;;;;;4982955;28;20069;-84
2023/08/24 09:53:21;;;;;;;2.63;1.42;;;27.40;65.50;;;;;;5006778;28;20109;-78
2023/08/24 09:56:00;;;;;;;2.35;1.20;;;27.40;65.20;;;;;;5005777;28;20033;-85
2023/08/24 09:58:27;;;;;;;2.00;1.55;;;27.60;65.10;;;;;;5008506;28;20049;-84
2023/08/24 10:00:54;;;;;;;2.03;1.60;;;27.60;64.90;;;;;;5006353;28;20018;-84
2023/08/24 10:03:23;;;;;;;1.77;1.60;;;27.60;64.90;;;;;;5011848;28;20026;-85
2023/08/24 10:06:03;;;;;;;4.05;2.25;;;27.70;64.70;;;;;;5004290;28;20132;-76
2023/08/24 10:08:43;;;;;;;3.03;1.75;;;27.70;64.20;;;;;;5013342;28;20065;-85
2023/08/24 10:11:11;;;;;;;4.18;2.03;;;27.70;64.50;;;;;;5011754;28;20025;-83
2023/08/24 10:13:49;;;;;;;4.07;2.30;;;27.60;64.60;;;;;;5012787;28;20105;-83
2023/08/24 10:16:18;;;;;;;2.15;1.77;;;27.50;64.30;;;;;;5022933;28;20525;-84
2023/08/24 10:18:44;;;;;;;2.65;1.67;;;27.40;64.50;;;;;;5007693;28;20366;-86
2023/08/24 10:21:10;;;;;;;3.03;1.58;;;27.30;64.70;;;;;;5012056;28;20109;-78
2023/08/24 10:23:38;;;;;;;2.53;1.88;;;27.30;64.80;;;;;;4991818;28;20037;-79
2023/08/24 10:26:06;;;;;;;2.08;1.50;;;27.20;64.70;;;;;;5009668;28;20030;-84
2023/08/24 10:28:32;;;;;;;2.65;1.45;;;27.00;65.00;;;;;;5012615;28;20543;-79
2023/08/24 10:31:01;;;;;;;2.25;1.70;;;27.00;65.10;;;;;;5008743;28;20493;-78
2023/08/24 10:33:27;;;;;;;3.92;1.30;;;26.90;65.20;;;;;;5008312;28;20120;-84
2023/08/24 10:35:53;;;;;;;2.47;1.88;;;26.90;65.30;;;;;;5008026;28;20046;-78
2023/08/24 10:38:29;;;;;;;1.80;1.60;;;26.90;65.50;;;;;;5011743;28;20030;-82
2023/08/24 10:41:05;;;;;;;3.45;1.70;;;26.90;65.60;;;;;;5021979;28;20042;-85
2023/08/24 10:43:41;;;;;;;2.10;1.67;;;26.80;65.70;;;;;;5000720;28;20080;-77
2023/08/24 10:46:16;;;;;;;4.13;1.60;;;26.70;65.80;;;;;;5009806;28;20033;-76
2023/08/24 10:48:41;;;;;;;2.20;1.40;;;26.70;66.10;;;;;;5024335;28;20030;-85
2023/08/24 10:51:13;;;;;;;2.25;1.88;;;26.60;66.30;;;;;;5009453;28;20447;-85
2023/08/24 10:53:45;;;;;;;2.83;1.65;;;26.50;66.40;;;;;;5023810;28;20034;-84
2023/08/24 10:56:15;;;;;;;2.58;1.65;;;26.40;66.50;;;;;;5010913;28;20030;-85
2023/08/24 10:58:45;;;;;;;2.97;2.20;;;26.40;66.80;;;;;;5013445;28;20038;-85
2023/08/24 11:01:18;;;;;;;2.40;1.42;;;26.20;66.80;;;;;;5005844;28;20092;-77
2023/08/24 11:04:00;;;;;;;1.55;1.45;;;26.20;67.00;;;;;;5006654;28;20087;-77
2023/08/24 11:06:28;;;;;;;1.88;1.27;;;26.20;67.10;;;;;;5010211;28;20108;-78
2023/08/24 11:09:14;;;;;;;1.55;1.40;;;26.10;67.10;;;;;;5008418;28;20120;-78
2023/08/24 11:11:41;;;;;;;2.15;1.73;;;26.10;67.20;;;;;;5023471;28;20037;-78
2023/08/24 11:14:21;;;;;;;3.97;1.20;;;26.10;67.40;;;;;;5022240;28;20034;-86
2023/08/24 11:16:48;;;;;;;2.22;1.10;;;26.10;67.50;;;;;;5004417;28;20026;-84
2023/08/24 11:19:15;;;;;;;3.00;1.20;;;26.10;67.50;;;;;;5000986;28;20042;-77
2023/08/24 11:21:42;;;;;;;1.45;1.00;;;26.20;67.70;;;;;;5010079;28;20740;-84
2023/08/24 11:24:16;;;;;;;1.75;1.25;;;26.20;67.70;;;;;;4984762;28;20504;-84
2023/08/24 11:26:47;;;;;;;1.40;1.30;;;26.20;67.70;;;;;;5007686;28;20076;-84
2023/08/24 11:29:15;;;;;;;3.40;1.45;;;26.20;68.00;;;;;;5003337;28;20048;-84
2023/08/24 11:31:41;;;;;;;2.90;1.65;;;26.20;68.40;;;;;;5009713;28;20435;-84
2023/08/24 11:34:10;;;;;;;4.05;2.00;;;26.20;69.30;;;;;;5007163;28;20056;-76
2023/08/24 11:36:43;;;;;;;3.60;1.77;;;26.20;69.70;;;;;;5012221;28;20512;-84
2023/08/24 11:39:19;;;;;;;1.70;1.40;;;26.20;70.00;;;;;;5009635;28;20033;-84
2023/08/24 11:42:05;;;;;;;1.83;1.65;;;26.20;70.00;;;;;;5013965;28;20097;-84
2023/08/24 11:44:48;;;;;;;2.22;1.30;;;26.30;69.80;;;;;;5016546;28;20062;-84
2023/08/24 11:47:14;;;;;;;2.60;1.70;;;26.30;69.70;;;;;;5010438;28;20038;-77
2023/08/24 11:49:40;;;;;;;1.80;1.70;;;26.40;69.50;;;;;;5008612;28;20125;-84
2023/08/24 11:52:08;;;;;;;1.50;1.23;;;26.50;69.40;;;;;;5023397;28;20069;-84
2023/08/24 11:54:33;;;;;;;1.35;1.23;;;26.60;69.40;;;;;;5011702;28;20029;-84
2023/08/24 11:56:59;;;;;;;1.58;1.40;;;26.60;69.20;;;;;;5012729;28;20030;-84
2023/08/24 11:59:26;;;;;;;3.60;1.73;;;26.70;69.30;;;;;;4992511;28;20069;-84
2023/08/24 12:01:52;;;;;;;2.50;2.25;;;26.70;69.30;;;;;;5013270;28;20037;-84
2023/08/24 12:04:18;;;;;;;4.38;1.23;;;26.70;69.30;;;;;;5013336;28;20384;-76
2023/08/24 12:06:44;;;;;;;0.90;0.90;;;26.80;69.40;;;;;;5011573;28;20033;-76
2023/08/24 12:09:10;;;;;;;2.28;1.65;;;26.80;69.20;;;;;;5008554;28;20041;-84
2023/08/24 12:11:39;;;;;;;2.42;1.35;;;26.90;68.70;;;;;;5001629;28;20457;-84
2023/08/24 12:14:06;;;;;;;2.28;1.55;;;26.90;68.60;;;;;;5003767;28;20034;-76
2023/08/24 12:16:33;;;;;;;2.10;1.40;;;26.90;68.10;;;;;;5006749;28;20032;-76
2023/08/24 12:19:00;;;;;;;2.72;1.50;;;26.90;67.90;;;;;;5006769;28;20042;-76
2023/08/24 12:21:27;;;;;;;1.58;1.48;;;27.00;67.80;;;;;;4990526;28;20121;-89
2023/08/24 12:24:05;;;;;;;1.55;1.13;;;26.90;67.60;;;;;;5009341;28;20022;-86
2023/08/24 12:26:35;;;;;;;1.30;1.17;;;26.90;67.60;;;;;;5011556;28;20770;-78
2023/08/24 12:29:07;;;;;;;1.48;1.38;;;26.90;67.70;;;;;;5009490;28;20100;-78
2023/08/24 12:31:34;;;;;;;1.70;1.60;;;26.90;67.70;;;;;;5006447;28;20350;-78
2023/08/24 12:34:01;;;;;;;2.00;1.20;;;26.90;67.70;;;;;;5016963;28;20393;-78
2023/08/24 12:36:27;;;;;;;2.97;1.23;;;26.90;67.70;;;;;;5008506;28;20029;-86
2023/08/24 12:38:53;;;;;;;1.75;1.20;;;26.90;67.60;;;;;;5011054;28;20385;-82
2023/08/24 12:41:19;;;;;;;1.50;1.20;;;26.90;67.70;;;;;;5017769;28;20038;-76
2023/08/24 12:43:44;;;;;;;2.15;1.20;;;26.90;67.80;;;;;;5010458;28;20084;-77
2023/08/24 12:46:10;;;;;;;1.73;1.40;;;26.90;68.70;;;;;;5005144;28;20030;-77
2023/08/24 12:48:39;;;;;;;1.50;1.40;;;26.90;68.40;;;;;;4988002;28;20050;-77
2023/08/24 12:51:05;;;;;;;1.77;1.63;;;26.80;68.40;;;;;;5020903;28;20388;-76
2023/08/24 12:53:31;;;;;;;2.95;2.25;;;26.80;68.30;;;;;;5004972;28;20034;-76